Time;durP1;ratioP1;P1;durP2;ratioP2;P2;SDS_P1;SDS_P2;PMS_P1;PMS_P2;Temp;Humidity;BMP_temperature;BMP_pressure;BME280_temperature;BME280_humidity;BME280_pressure;Samples;Min_cycle;Max_cycle;Signal;HPM_P1;HPM_P2
2023/01/11 00:01:26;;;;;;;18.35;4.68;;;;;;;10.77;100.00;100639.19;5022477;28;20026;-73
2023/01/11 00:03:51;;;;;;;12.73;4.43;;;;;;;10.82;100.00;100625.72;5023853;28;20067;-75
2023/01/11 00:06:17;;;;;;;14.73;4.70;;;;;;;10.87;100.00;100623.22;5025239;28;20053;-73
2023/01/11 00:08:42;;;;;;;19.70;4.78;;;;;;;10.82;100.00;100623.00;5020941;28;20025;-74
2023/01/11 00:11:15;;;;;;;17.00;4.65;;;;;;;10.77;100.00;100622.75;5021650;28;20435;-74
2023/01/11 00:13:42;;;;;;;15.52;4.82;;;;;;;10.84;100.00;100624.47;5022801;28;20520;-73
2023/01/11 00:16:08;;;;;;;19.27;4.38;;;;;;;10.80;100.00;100628.69;5027604;28;20036;-74
2023/01/11 00:18:35;;;;;;;14.68;4.15;;;;;;;10.85;100.00;100630.81;5019137;28;20516;-73
2023/01/11 00:21:04;;;;;;;16.17;4.18;;;;;;;10.88;100.00;100635.91;5019827;28;20041;-73
2023/01/11 00:23:34;;;;;;;11.98;3.67;;;;;;;10.85;100.00;100631.69;5019565;28;20503;-73
2023/01/11 00:26:05;;;;;;;12.30;4.50;;;;;;;10.83;100.00;100624.72;5025940;28;20068;-74
2023/01/11 00:28:30;;;;;;;10.50;4.15;;;;;;;10.82;100.00;100629.34;5019607;28;20057;-74
2023/01/11 00:30:56;;;;;;;18.17;4.67;;;;;;;10.77;100.00;100626.34;5007551;28;20128;-74
2023/01/11 00:33:21;;;;;;;11.25;3.88;;;;;;;10.83;100.00;100625.53;5021477;28;20436;-73
2023/01/11 00:35:50;;;;;;;11.50;4.50;;;;;;;10.85;100.00;100619.84;5021457;28;20036;-74
2023/01/11 00:38:42;;;;;;;13.30;4.38;;;;;;;10.80;100.00;100620.47;5028504;28;20029;-74
2023/01/11 00:47:55;;;;;;;11.95;4.00;;;;;;;10.81;100.00;100629.53;5023445;28;20045;-74
2023/01/11 00:49:13;;;;;;;7.57;3.80;;;;;;;10.88;100.00;100616.72;5021645;28;20057;-73
2023/01/11 00:51:39;;;;;;;12.90;4.03;;;;;;;10.93;100.00;100619.66;5026339;28;20029;-74
2023/01/11 00:54:04;;;;;;;12.07;3.85;;;;;;;10.91;100.00;100619.91;5023026;28;20099;-74
2023/01/11 00:56:29;;;;;;;9.07;3.95;;;;;;;10.94;100.00;100618.63;5020625;28;20108;-73
2023/01/11 00:58:55;;;;;;;7.97;3.78;;;;;;;10.96;100.00;100613.78;5022668;28;20033;-74
2023/01/11 01:01:20;;;;;;;11.40;4.53;;;;;;;10.98;100.00;100611.66;5019528;28;20025;-74
2023/01/11 01:03:45;;;;;;;10.63;4.03;;;;;;;10.94;100.00;100610.41;5021648;28;20036;-74
2023/01/11 01:06:11;;;;;;;10.60;4.10;;;;;;;10.96;100.00;100614.66;5019506;28;20037;-74
2023/01/11 01:08:36;;;;;;;16.70;4.23;;;;;;;10.88;100.00;100619.47;5020853;28;20021;-74
2023/01/11 01:11:02;;;;;;;10.03;3.70;;;;;;;10.95;100.00;100614.84;5018769;28;20029;-73
2023/01/11 01:14:28;;;;;;;12.20;4.27;;;;;;;10.92;100.00;100626.19;5021973;28;20108;-74
2023/01/11 01:16:21;;;;;;;9.90;3.50;;;;;;;10.93;100.00;100626.00;5019823;28;20042;-74
2023/01/11 01:18:47;;;;;;;10.20;4.77;;;;;;;10.91;100.00;100627.25;5024114;28;20396;-73
2023/01/11 01:21:12;;;;;;;7.27;4.13;;;;;;;10.92;100.00;100623.47;5023129;28;20052;-74
2023/01/11 01:23:38;;;;;;;10.43;3.60;;;;;;;10.90;100.00;100614.63;5019798;28;20044;-74
2023/01/11 01:26:04;;;;;;;8.52;3.80;;;;;;;10.91;100.00;100624.53;5024632;28;20029;-74
2023/01/11 01:28:29;;;;;;;6.65;3.15;;;;;;;10.88;100.00;100616.72;5020468;28;20040;-74
2023/01/11 01:30:55;;;;;;;6.63;3.65;;;;;;;10.85;100.00;100615.25;5028028;28;20112;-74
2023/01/11 01:33:21;;;;;;;9.30;3.40;;;;;;;10.89;100.00;100626.63;5025374;28;20048;-74
2023/01/11 01:35:46;;;;;;;11.40;3.30;;;;;;;10.90;100.00;100628.31;5026147;28;20499;-74
2023/01/11 01:38:11;;;;;;;13.00;3.58;;;;;;;10.89;100.00;100619.22;5025399;28;20025;-75
2023/01/11 01:40:46;;;;;;;13.30;3.10;;;;;;;10.93;100.00;100630.63;5021587;28;20428;-73
2023/01/11 01:43:13;;;;;;;8.82;3.28;;;;;;;10.90;100.00;100642.84;5022842;28;20033;-75
2023/01/11 01:45:40;;;;;;;9.80;3.08;;;;;;;10.96;100.00;100638.44;5025170;28;20033;-73
2023/01/11 01:48:08;;;;;;;11.73;3.33;;;;;;;10.99;100.00;100643.53;5025419;28;20045;-74
2023/01/11 01:50:47;;;;;;;8.15;2.97;;;;;;;10.95;100.00;100631.28;5026899;28;20037;-73
2023/01/11 01:53:20;;;;;;;7.38;3.33;;;;;;;10.98;100.00;100655.53;5026515;28;20032;-74
2023/01/11 01:55:55;;;;;;;7.80;2.83;;;;;;;10.96;100.00;100649.41;5023411;28;20053;-73
2023/01/11 01:58:30;;;;;;;5.70;2.63;;;;;;;10.93;100.00;100645.19;5019805;28;20076;-74
2023/01/11 02:00:55;;;;;;;16.85;3.58;;;;;;;10.95;100.00;100643.06;5023085;28;20043;-74
2023/01/11 02:03:25;;;;;;;9.23;2.83;;;;;;;10.99;100.00;100643.53;5027897;28;20025;-74
2023/01/11 02:05:52;;;;;;;11.05;4.18;;;;;;;10.99;100.00;100649.84;5017116;28;20064;-74
2023/01/11 02:08:32;;;;;;;5.38;2.97;;;;;;;11.00;100.00;100639.75;5030194;28;20485;-74
2023/01/11 02:10:58;;;;;;;14.05;3.92;;;;;;;11.01;100.00;100646.91;5017983;28;20108;-73
2023/01/11 02:13:24;;;;;;;8.85;3.08;;;;;;;11.03;100.00;100645.66;5008163;28;20065;-73
2023/01/11 02:16:06;;;;;;;9.35;3.50;;;;;;;11.08;100.00;100653.25;5024477;28;20117;-74
2023/01/11 02:18:33;;;;;;;7.28;3.58;;;;;;;11.06;100.00;100645.22;5023717;28;20477;-75
2023/01/11 02:21:34;;;;;;;7.68;3.10;;;;;;;11.03;100.00;100653.00;5030218;28;20045;-74
2023/01/11 02:24:02;;;;;;;13.32;3.88;;;;;;;11.00;100.00;100646.03;5026652;28;20060;-76
2023/01/11 02:26:57;;;;;;;11.48;3.33;;;;;;;11.00;100.00;100643.31;5026887;28;20033;-74
2023/01/11 02:29:34;;;;;;;10.98;3.20;;;;;;;11.05;100.00;100645.44;5025299;28;20025;-73
2023/01/11 02:32:23;;;;;;;5.30;2.78;;;;;;;11.02;100.00;100648.59;5017188;28;20033;-73
2023/01/11 02:35:09;;;;;;;5.55;2.90;;;;;;;11.03;100.00;100655.75;5022298;28;20038;-74
2023/01/11 02:37:44;;;;;;;5.88;2.33;;;;;;;10.98;100.00;100642.69;5022356;28;20121;-75
2023/01/11 02:40:21;;;;;;;7.38;2.40;;;;;;;11.03;100.00;100651.13;5023009;28;20499;-75
2023/01/11 02:45:59;;;;;;;9.10;2.60;;;;;;;11.04;100.00;100649.25;5025143;28;20062;-74
2023/01/11 02:48:44;;;;;;;3.75;2.75;;;;;;;10.98;100.00;100642.69;5024412;28;20052;-74
2023/01/11 02:51:16;;;;;;;3.53;2.30;;;;;;;11.03;100.00;100648.38;5022588;28;20396;-75
2023/01/11 02:53:56;;;;;;;6.00;2.97;;;;;;;11.03;100.00;100658.50;5026178;28;20033;-73
2023/01/11 02:56:26;;;;;;;4.20;2.92;;;;;;;11.04;100.00;100665.69;5026249;28;20506;-74
2023/01/11 02:58:55;;;;;;;8.10;3.35;;;;;;;11.03;100.00;100669.47;5018275;28;20036;-74
2023/01/11 03:01:21;;;;;;;5.82;2.92;;;;;;;11.06;100.00;100672.63;5022617;28;20025;-74
2023/01/11 03:03:50;;;;;;;5.30;3.23;;;;;;;11.07;100.00;100662.53;5020974;28;20416;-73
2023/01/11 03:06:28;;;;;;;6.65;3.67;;;;;;;11.06;100.00;100669.06;5023575;28;20061;-75
2023/01/11 03:09:22;;;;;;;8.55;3.97;;;;;;;11.07;100.00;100673.50;5022285;28;20477;-74
2023/01/11 03:15:16;;;;;;;6.82;3.05;;;;;;;11.07;100.00;100676.22;5026138;28;20057;-73
2023/01/11 03:17:53;;;;;;;7.13;3.20;;;;;;;11.07;100.00;100679.84;5051747;28;20397;-74
2023/01/11 03:20:29;;;;;;;3.78;3.10;;;;;;;11.11;100.00;100680.25;5023276;28;20116;-74
2023/01/11 03:22:57;;;;;;;12.45;3.28;;;;;;;11.06;100.00;100683.59;5022884;28;20131;-74
2023/01/11 03:25:35;;;;;;;5.32;3.40;;;;;;;11.08;100.00;100678.78;5024410;28;20030;-74
2023/01/11 03:28:21;;;;;;;4.88;3.90;;;;;;;11.06;100.00;100685.50;5025596;28;20029;-74
2023/01/11 03:31:25;;;;;;;5.75;3.53;;;;;;;11.05;100.00;100679.16;5039181;28;20504;-73
2023/01/11 03:34:05;;;;;;;5.05;3.55;;;;;;;11.08;100.00;100694.38;5007753;28;20040;-73
2023/01/11 03:36:41;;;;;;;9.60;5.65;;;;;;;11.12;100.00;100695.66;5018519;28;20044;-75
2023/01/11 03:39:28;;;;;;;7.72;4.40;;;;;;;11.09;100.00;100687.81;5022355;28;20029;-74
2023/01/11 03:41:57;;;;;;;10.30;4.95;;;;;;;11.12;100.00;100695.66;5022192;28;20042;-74
2023/01/11 03:44:26;;;;;;;8.55;5.35;;;;;;;11.13;100.00;100700.09;5018109;28;20026;-73
2023/01/11 03:47:01;;;;;;;10.52;5.90;;;;;;;11.13;100.00;100692.72;5021011;28;20052;-74
2023/01/11 03:49:35;;;;;;;8.00;6.05;;;;;;;11.07;100.00;100703.66;5024277;28;20497;-74
2023/01/11 03:52:03;;;;;;;7.88;4.78;;;;;;;11.04;100.00;100701.34;5056366;28;20392;-74
2023/01/11 03:54:30;;;;;;;9.82;4.93;;;;;;;11.12;100.00;100715.69;5018151;28;20064;-75
2023/01/11 03:57:04;;;;;;;12.45;5.90;;;;;;;11.09;100.00;100704.28;5024907;28;20029;-75
2023/01/11 03:59:29;;;;;;;7.65;5.20;;;;;;;10.98;100.00;100716.69;5024052;28;20108;-75
2023/01/11 04:01:56;;;;;;;13.60;5.47;;;;;;;11.00;100.00;100724.69;5025074;28;20116;-75
2023/01/11 04:04:22;;;;;;;13.17;5.53;;;;;;;11.01;100.00;100729.13;5016767;28;20095;-75
2023/01/11 04:06:47;;;;;;;11.15;5.80;;;;;;;11.02;100.00;100720.72;5021847;28;20549;-75
2023/01/11 04:09:13;;;;;;;10.70;5.93;;;;;;;11.06;100.00;100730.19;5020538;28;20022;-75
2023/01/11 04:11:38;;;;;;;15.97;6.63;;;;;;;11.00;100.00;100733.75;5018868;28;20477;-75
2023/01/11 04:14:03;;;;;;;13.93;5.27;;;;;;;11.05;100.00;100730.44;5025230;28;20463;-75
2023/01/11 04:16:29;;;;;;;15.45;5.72;;;;;;;11.04;100.00;100731.47;5024283;28;20037;-75
2023/01/11 04:18:54;;;;;;;10.93;6.00;;;;;;;11.03;100.00;100736.09;5023314;28;20036;-76
2023/01/11 04:21:20;;;;;;;10.70;5.37;;;;;;;11.06;100.00;100738.41;5022063;28;20032;-75
2023/01/11 04:23:45;;;;;;;17.23;5.20;;;;;;;11.02;100.00;100742.63;5026956;28;20385;-75
2023/01/11 04:26:10;;;;;;;9.85;4.57;;;;;;;10.96;100.00;100735.22;5022223;28;20045;-75
2023/01/11 04:28:36;;;;;;;8.67;4.93;;;;;;;10.98;100.00;100727.63;5020973;28;20184;-75
2023/01/11 04:31:02;;;;;;;18.70;4.97;;;;;;;10.99;100.00;100743.03;5021517;28;20037;-75
2023/01/11 04:33:27;;;;;;;18.60;5.05;;;;;;;10.99;100.00;100751.25;5021818;28;20040;-75
2023/01/11 04:35:52;;;;;;;12.65;4.15;;;;;;;10.99;100.00;100755.91;5029127;28;20032;-76
2023/01/11 04:38:22;;;;;;;15.50;4.63;;;;;;;10.95;100.00;100758.19;5020090;28;20501;-75
2023/01/11 04:40:48;;;;;;;25.25;4.60;;;;;;;10.97;100.00;100760.72;5020004;28;20484;-75
2023/01/11 04:43:13;;;;;;;23.97;4.23;;;;;;;10.89;100.00;100759.00;5022835;28;20025;-76
2023/01/11 04:45:39;;;;;;;23.45;3.88;;;;;;;10.87;100.00;100754.75;5022608;28;20033;-75
2023/01/11 04:48:04;;;;;;;29.37;3.83;;;;;;;10.83;100.00;100762.53;5018657;28;20072;-75
2023/01/11 04:50:30;;;;;;;27.17;5.32;;;;;;;10.82;100.00;100771.81;5023862;28;20480;-75
2023/01/11 04:52:57;;;;;;;38.25;3.97;;;;;;;10.80;100.00;100782.13;5007310;28;20417;-75
2023/01/11 04:55:23;;;;;;;35.55;5.10;;;;;;;10.69;100.00;100768.13;5023840;28;20477;-75
2023/01/11 04:57:48;;;;;;;41.53;5.63;;;;;;;10.64;100.00;100771.47;5002431;28;20025;-75
2023/01/11 05:00:14;;;;;;;31.33;4.63;;;;;;;10.63;100.00;100786.19;5026640;28;20048;-75
2023/01/11 05:02:40;;;;;;;44.80;5.22;;;;;;;10.56;100.00;100779.00;5027465;28;20181;-75
2023/01/11 05:05:06;;;;;;;31.10;5.07;;;;;;;10.55;100.00;100780.03;5025690;28;20038;-75
2023/01/11 05:07:32;;;;;;;32.40;4.50;;;;;;;10.51;100.00;100778.75;5026258;28;20026;-75
2023/01/11 05:09:58;;;;;;;36.57;5.67;;;;;;;10.51;100.00;100789.72;5026783;28;20120;-76
2023/01/11 05:12:23;;;;;;;33.30;4.63;;;;;;;10.44;100.00;100791.53;5020925;28;20128;-75
2023/01/11 05:14:48;;;;;;;29.45;5.47;;;;;;;10.39;100.00;100804.97;5025890;28;20616;-76
2023/01/11 05:17:15;;;;;;;22.87;5.00;;;;;;;10.33;100.00;100797.53;5031022;28;20061;-76
2023/01/11 05:19:42;;;;;;;34.95;4.03;;;;;;;10.33;100.00;100794.78;5027186;28;20396;-78
2023/01/11 05:22:07;;;;;;;;;;;;;;;10.31;100.00;100805.94;5024808;28;20182;-76
2023/01/11 05:24:33;;;;;;;27.63;4.25;;;;;;;10.26;100.00;100799.38;5030974;28;20059;-75
2023/01/11 05:26:58;;;;;;;41.60;4.28;;;;;;;10.23;100.00;100819.78;5023240;28;20387;-75
2023/01/11 05:29:24;;;;;;;34.03;4.35;;;;;;;10.20;100.00;100822.88;5028007;28;20034;-75
2023/01/11 05:31:49;;;;;;;34.53;4.33;;;;;;;10.12;100.00;100817.56;5022980;28;20033;-76
2023/01/11 05:34:16;;;;;;;31.42;5.05;;;;;;;10.13;100.00;100815.66;5017746;28;20092;-75
2023/01/11 05:36:42;;;;;;;28.05;4.97;;;;;;;10.12;100.00;100819.44;5026578;28;20025;-76
2023/01/11 05:39:08;;;;;;;38.85;4.68;;;;;;;10.12;100.00;100822.16;5027842;28;20048;-75
2023/01/11 05:41:34;;;;;;;25.08;4.03;;;;;;;9.98;100.00;100826.63;5025131;28;20423;-75
2023/01/11 05:46:44;;;;;;;33.30;6.82;;;;;;;9.93;100.00;100833.75;5021997;28;20045;-76
2023/01/11 05:49:11;;;;;;;32.20;4.90;;;;;;;9.89;100.00;100829.69;5016712;28;20058;-76
2023/01/11 05:51:37;;;;;;;26.25;4.55;;;;;;;9.78;100.00;100833.75;5026193;28;21842;-75
2023/01/11 05:54:04;;;;;;;20.53;3.70;;;;;;;9.74;100.00;100829.72;5025256;28;20112;-75
2023/01/11 05:56:29;;;;;;;;;;;;;;;9.80;100.00;100825.38;5024473;28;20480;-76
2023/01/11 05:58:55;;;;;;;25.83;4.30;;;;;;;9.77;100.00;100836.72;5028538;28;19923;-75
2023/01/11 06:01:22;;;;;;;26.63;3.85;;;;;;;9.73;100.00;100844.44;5024117;28;20044;-75
2023/01/11 06:03:47;;;;;;;26.60;4.03;;;;;;;9.72;100.00;100839.16;5023816;28;20038;-75
2023/01/11 06:06:14;;;;;;;29.55;3.63;;;;;;;9.66;100.00;100838.03;5013082;28;20039;-76
2023/01/11 06:08:39;;;;;;;22.92;4.78;;;;;;;9.64;100.00;100850.19;5022618;28;20404;-76
2023/01/11 06:11:05;;;;;;;32.10;4.97;;;;;;;9.62;100.00;100841.34;5024810;28;20030;-76
2023/01/11 06:13:32;;;;;;;29.63;4.27;;;;;;;9.57;100.00;100841.94;5022749;28;20401;-75
2023/01/11 06:16:15;;;;;;;23.85;3.42;;;;;;;9.53;100.00;100839.75;5025553;28;20512;-75
2023/01/11 06:18:43;;;;;;;26.63;4.25;;;;;;;9.52;100.00;100854.47;5027946;28;20492;-76
2023/01/11 06:21:09;;;;;;;29.13;3.90;;;;;;;9.44;100.00;100860.88;5021515;28;20030;-75
2023/01/11 06:23:37;;;;;;;25.55;3.60;;;;;;;9.39;100.00;100865.25;5025642;28;20091;-75
2023/01/11 06:26:05;;;;;;;24.00;4.32;;;;;;;9.46;100.00;100866.16;5024678;28;20022;-75
2023/01/11 06:28:30;;;;;;;28.88;3.55;;;;;;;9.42;100.00;100882.09;5029383;28;20081;-75
2023/01/11 06:30:58;;;;;;;22.38;3.53;;;;;;;9.41;100.00;100890.50;5025539;28;20113;-75
2023/01/11 06:33:25;;;;;;;22.17;3.92;;;;;;;9.40;100.00;100897.00;5006994;28;20144;-75
2023/01/11 06:35:51;;;;;;;29.92;5.30;;;;;;;9.35;100.00;100900.28;5022710;28;20037;-75
2023/01/11 06:38:18;;;;;;;29.67;3.97;;;;;;;9.29;100.00;100898.31;5028254;28;20508;-76
2023/01/11 06:40:57;;;;;;;35.58;4.75;;;;;;;9.29;100.00;100902.94;5025606;28;20026;-75
2023/01/11 06:43:24;;;;;;;28.17;3.17;;;;;;;9.22;100.00;100899.25;5021929;28;20025;-75
2023/01/11 06:45:50;;;;;;;28.95;3.97;;;;;;;9.19;100.00;100899.63;5023808;28;20037;-75
2023/01/11 06:48:16;;;;;;;28.52;4.10;;;;;;;9.18;100.00;100900.66;5022124;28;20091;-76
2023/01/11 06:50:46;;;;;;;27.13;4.85;;;;;;;9.11;100.00;100894.22;5025502;28;20029;-76
2023/01/11 06:53:11;;;;;;;21.52;3.90;;;;;;;9.09;100.00;100893.59;5053677;28;20037;-75
2023/01/11 06:55:37;;;;;;;39.53;4.28;;;;;;;9.08;100.00;100898.19;5025467;28;20021;-75
2023/01/11 06:58:02;;;;;;;25.83;3.63;;;;;;;9.06;100.00;100899.41;5021097;28;20084;-75
2023/01/11 07:00:29;;;;;;;25.00;3.57;;;;;;;9.04;100.00;100913.28;5026886;28;20092;-75
2023/01/11 07:02:54;;;;;;;31.00;3.97;;;;;;;9.03;100.00;100913.47;5024867;28;20348;-76
2023/01/11 07:05:20;;;;;;;28.20;4.67;;;;;;;9.08;100.00;100914.59;5026713;28;20131;-75
2023/01/11 07:07:46;;;;;;;33.13;3.40;;;;;;;9.10;100.00;100928.06;5021730;28;20033;-75
2023/01/11 07:10:14;;;;;;;26.40;3.30;;;;;;;9.15;100.00;100937.41;5024101;28;20044;-76
2023/01/11 07:12:40;;;;;;;21.27;4.57;;;;;;;9.11;100.00;100940.69;5020088;28;20038;-76
2023/01/11 07:15:08;;;;;;;36.28;4.75;;;;;;;9.06;100.00;100938.53;5024895;28;20543;-75
2023/01/11 07:17:33;;;;;;;27.73;4.55;;;;;;;9.05;100.00;100949.63;5027983;28;20113;-75
2023/01/11 07:19:58;;;;;;;36.08;4.25;;;;;;;9.02;100.00;100950.84;5025661;28;20467;-75
2023/01/11 07:22:24;;;;;;;26.33;4.70;;;;;;;8.90;100.00;100952.31;5023783;28;20042;-75
2023/01/11 07:24:50;;;;;;;30.05;4.07;;;;;;;8.91;100.00;100961.38;5039601;28;20034;-75
2023/01/11 07:27:16;;;;;;;34.85;3.63;;;;;;;8.82;100.00;100967.94;5020615;28;20029;-76
2023/01/11 07:29:42;;;;;;;24.23;3.70;;;;;;;8.83;100.00;100961.44;5020348;28;20041;-76
2023/01/11 07:32:09;;;;;;;32.38;3.45;;;;;;;8.77;100.00;100959.44;5018265;28;20030;-76
2023/01/11 07:34:35;;;;;;;33.80;4.07;;;;;;;8.76;100.00;100963.22;5024297;28;20026;-76
2023/01/11 07:37:00;;;;;;;33.10;5.00;;;;;;;8.69;100.00;100959.50;5025387;28;20029;-76
2023/01/11 07:39:25;;;;;;;31.25;4.25;;;;;;;8.67;100.00;100975.22;5023186;28;20706;-75
2023/01/11 07:44:35;;;;;;;31.33;5.15;;;;;;;8.53;100.00;100987.78;5020036;28;20040;-76
2023/01/11 07:47:00;;;;;;;26.50;4.35;;;;;;;8.47;100.00;100983.03;5019965;28;20030;-75
2023/01/11 07:49:26;;;;;;;33.53;5.07;;;;;;;8.53;100.00;100995.09;5024947;28;20925;-75
2023/01/11 07:51:52;;;;;;;29.67;4.97;;;;;;;8.50;100.00;101001.78;5026661;28;20037;-75
2023/01/11 07:54:17;;;;;;;32.03;4.20;;;;;;;8.46;100.00;101007.78;5027746;28;20810;-75
2023/01/11 07:56:43;;;;;;;30.95;4.25;;;;;;;8.42;100.00;101010.03;5021408;28;20159;-75
2023/01/11 07:59:10;;;;;;;30.35;4.82;;;;;;;8.35;100.00;101010.91;5023954;28;20030;-76
2023/01/11 08:01:35;;;;;;;;;;;;;;;8.34;100.00;101006.50;5027885;28;20129;-75
2023/01/11 08:04:03;;;;;;;25.85;4.28;;;;;;;8.34;100.00;101017.41;5022049;28;20277;-75
2023/01/11 08:06:28;;;;;;;29.60;4.15;;;;;;;8.25;100.00;101015.75;5021042;28;20720;-75
2023/01/11 08:08:54;;;;;;;26.95;3.88;;;;;;;8.23;100.00;101031.44;5026232;28;20144;-75
2023/01/11 08:16:47;;;;;;;23.02;3.50;;;;;;;8.13;100.00;101052.59;5025223;28;20028;-75
2023/01/11 08:19:12;;;;;;;20.25;3.17;;;;;;;8.11;100.00;101063.69;5025132;28;20033;-75
2023/01/11 08:21:38;;;;;;;18.00;3.10;;;;;;;8.17;100.00;101065.69;5023571;28;20043;-75
2023/01/11 08:24:03;;;;;;;25.08;3.78;;;;;;;8.23;100.00;101073.22;5027030;28;20043;-75
2023/01/11 08:26:29;;;;;;;20.25;3.60;;;;;;;8.26;100.00;101069.28;5022842;28;21899;-75
2023/01/11 08:28:54;;;;;;;29.02;3.25;;;;;;;8.27;100.00;101073.75;5026029;28;20124;-76
2023/01/11 08:31:21;;;;;;;22.50;3.88;;;;;;;8.29;100.00;101085.31;5023236;28;20029;-75
2023/01/11 08:33:48;;;;;;;27.05;3.53;;;;;;;8.30;100.00;101078.81;5024457;28;21183;-75
2023/01/11 08:36:14;;;;;;;32.55;4.35;;;;;;;8.29;100.00;101082.59;5023885;28;20025;-75
2023/01/11 08:38:39;;;;;;;25.95;4.38;;;;;;;8.37;100.00;101079.81;5028146;28;20030;-75
2023/01/11 08:41:12;;;;;;;35.88;4.25;;;;;;;8.36;100.00;101098.09;5027705;28;20034;-75
2023/01/11 08:43:41;;;;;;;35.55;4.47;;;;;;;8.39;100.00;101091.41;5025924;28;20384;-75
2023/01/11 08:46:07;;;;;;;25.58;4.50;;;;;;;8.36;100.00;101087.16;5022416;28;20445;-75
2023/01/11 08:48:33;;;;;;;25.97;3.80;;;;;;;8.26;100.00;101088.38;5024077;28;20504;-75
2023/01/11 08:50:59;;;;;;;38.17;5.70;;;;;;;8.19;100.00;101082.78;5034750;28;20278;-74
2023/01/11 08:53:24;;;;;;;23.75;3.83;;;;;;;8.28;100.00;101089.91;5029526;28;20037;-74
2023/01/11 08:55:51;;;;;;;20.38;2.97;;;;;;;8.26;100.00;101091.09;5032335;28;20091;-75
2023/01/11 08:58:16;;;;;;;24.23;4.87;;;;;;;8.28;100.00;101091.81;5026066;28;20381;-75
2023/01/11 09:00:42;;;;;;;27.23;4.03;;;;;;;8.21;100.00;101088.06;5028279;28;20279;-74
2023/01/11 09:03:10;;;;;;;31.45;4.65;;;;;;;8.26;100.00;101085.66;5022614;28;20749;-76
2023/01/11 09:05:39;;;;;;;18.80;3.08;;;;;;;8.24;100.00;101088.59;5024830;28;20132;-76
2023/01/11 09:08:06;;;;;;;26.10;4.70;;;;;;;8.23;100.00;101091.47;5028103;28;20069;-76
2023/01/11 09:11:03;;;;;;;;;;;;;;;;;;;;;
2023/01/11 09:13:29;;;;;;;33.88;4.95;;;;;;;8.34;100.00;101097.38;5027345;28;20025;-76
2023/01/11 09:15:57;;;;;;;22.48;3.47;;;;;;;8.37;100.00;101088.00;5027108;28;20040;-75
2023/01/11 09:18:25;;;;;;;27.60;3.80;;;;;;;8.45;100.00;101085.25;5027707;28;20921;-75
2023/01/11 09:20:51;;;;;;;31.77;3.50;;;;;;;8.44;100.00;101081.66;5025919;28;20044;-76
2023/01/11 09:23:16;;;;;;;35.70;5.47;;;;;;;8.59;100.00;101107.19;5024732;28;20029;-76
2023/01/11 09:25:41;;;;;;;33.05;4.50;;;;;;;8.62;100.00;101114.16;5018821;28;20117;-76
2023/01/11 09:28:07;;;;;;;39.55;5.30;;;;;;;8.62;100.00;101104.09;5023617;28;20033;-77
2023/01/11 09:30:32;;;;;;;26.40;3.72;;;;;;;8.65;100.00;101111.91;5018576;28;20417;-76
2023/01/11 09:32:58;;;;;;;23.85;4.50;;;;;;;8.69;100.00;101121.47;5024743;28;20047;-76
2023/01/11 09:35:24;;;;;;;25.08;3.78;;;;;;;8.70;100.00;101122.31;5023746;28;20112;-75
2023/01/11 09:37:51;;;;;;;32.05;4.70;;;;;;;8.71;100.00;101118.56;5027554;28;20044;-76
2023/01/11 09:40:32;;;;;;;;;;;;;;;8.77;100.00;101121.44;5029769;28;20034;-75
2023/01/11 09:43:00;;;;;;;29.60;4.32;;;;;;;8.71;100.00;101133.03;5023222;28;19932;-76
2023/01/11 09:45:29;;;;;;;25.13;3.83;;;;;;;8.77;100.00;101121.44;5027430;28;20040;-76
2023/01/11 09:48:10;;;;;;;35.75;4.53;;;;;;;8.82;100.00;101134.53;5029297;28;20575;-75
2023/01/11 09:50:42;;;;;;;45.33;4.63;;;;;;;8.84;100.00;101132.47;5015596;28;21668;-77
2023/01/11 09:53:26;;;;;;;40.85;6.68;;;;;;;8.89;100.00;101149.19;5049441;28;20485;-76
2023/01/11 09:55:55;;;;;;;28.77;3.58;;;;;;;8.88;100.00;101142.03;5019846;28;20050;-76
2023/01/11 09:58:53;;;;;;;31.67;4.53;;;;;;;8.93;100.00;101142.34;5022980;28;20025;-76
2023/01/11 10:01:40;;;;;;;31.60;3.83;;;;;;;8.98;100.00;101146.22;5024551;28;20105;-76
2023/01/11 10:04:31;;;;;;;43.30;4.93;;;;;;;9.00;100.00;101146.91;5023537;28;20060;-76
2023/01/11 10:07:03;;;;;;;37.25;5.10;;;;;;;9.06;100.00;101151.66;5026483;28;20128;-76
2023/01/11 10:09:47;;;;;;;28.08;4.03;;;;;;;9.04;100.00;101156.44;5027246;28;20033;-76
2023/01/11 10:12:30;;;;;;;28.33;4.20;;;;;;;9.06;100.00;101156.25;5022636;28;20546;-76
2023/01/11 10:15:36;;;;;;;29.80;4.43;;;;;;;9.13;100.00;101163.53;5025226;28;20029;-76
2023/01/11 10:18:21;;;;;;;26.98;4.88;;;;;;;9.17;100.00;101169.50;5022787;28;20029;-76
2023/01/11 10:20:57;;;;;;;22.67;3.58;;;;;;;9.16;100.00;101160.47;5029873;28;20064;-76
2023/01/11 10:23:31;;;;;;;20.35;3.72;;;;;;;9.24;100.00;101165.88;5030212;28;20037;-76
2023/01/11 10:26:01;;;;;;;29.52;4.60;;;;;;;9.27;100.00;101170.13;5021219;28;20037;-76
2023/01/11 10:28:42;;;;;;;29.70;4.28;;;;;;;9.33;100.00;101183.91;5028348;28;20033;-76
2023/01/11 10:31:48;;;;;;;30.60;4.78;;;;;;;9.33;100.00;101174.84;5026962;28;20123;-76
2023/01/11 10:43:02;;;;;;;29.20;3.70;;;;;;;9.52;100.00;101174.38;5019207;28;20053;-76
2023/01/11 10:45:53;;;;;;;27.55;3.65;;;;;;;9.59;100.00;101167.16;5015961;28;20033;-75
2023/01/11 10:48:40;;;;;;;29.83;4.25;;;;;;;9.64;100.00;101168.31;5019598;28;20083;-76
2023/01/11 10:51:26;;;;;;;31.55;4.55;;;;;;;9.70;99.66;101175.78;5031282;28;20029;-76
2023/01/11 10:54:15;;;;;;;27.08;4.93;;;;;;;9.73;99.66;101166.34;5026824;28;20557;-77
2023/01/11 10:56:53;;;;;;;22.92;2.95;;;;;;;9.71;98.73;101172.00;5029659;28;20689;-77
2023/01/11 10:59:38;;;;;;;;;;;;;;;9.73;98.68;101190.97;5026038;28;20048;-77
2023/01/11 11:02:18;;;;;;;33.63;3.55;;;;;;;9.73;98.84;101175.44;5023231;28;19959;-76
2023/01/11 11:05:04;;;;;;;38.30;5.82;;;;;;;9.69;98.51;101176.81;5025418;28;20021;-76
2023/01/11 11:07:43;;;;;;;36.95;4.25;;;;;;;9.85;99.11;101178.56;5019299;28;20088;-76
2023/01/11 11:10:20;;;;;;;37.55;4.22;;;;;;;9.88;98.15;101172.72;5018438;28;20021;-77
2023/01/11 11:13:08;;;;;;;;;;;;;;;9.95;96.83;101180.00;5026257;28;20049;-76
2023/01/11 11:15:55;;;;;;;34.88;4.53;;;;;;;10.01;98.03;101176.53;5027472;28;20364;-76
2023/01/11 11:18:20;;;;;;;28.42;3.95;;;;;;;10.06;97.30;101179.59;5025526;28;20033;-77
2023/01/11 11:20:46;;;;;;;32.28;4.53;;;;;;;10.05;97.26;101177.03;5025611;28;20021;-77
2023/01/11 11:23:16;;;;;;;25.52;4.40;;;;;;;9.87;98.12;101171.88;5020400;28;20030;-76
2023/01/11 11:25:47;;;;;;;24.80;4.63;;;;;;;9.81;97.86;101182.69;5021399;28;20094;-78
2023/01/11 11:28:21;;;;;;;34.75;5.60;;;;;;;9.76;98.22;101183.25;5018958;28;20041;-77
2023/01/11 11:30:47;;;;;;;31.20;4.07;;;;;;;9.77;99.03;101187.69;5023308;28;20099;-77
2023/01/11 11:33:21;;;;;;;35.45;4.30;;;;;;;9.70;98.10;101183.13;5025213;28;20030;-77
2023/01/11 11:35:58;;;;;;;29.23;4.72;;;;;;;9.62;97.98;101177.72;5023026;28;20105;-76
2023/01/11 11:38:30;;;;;;;40.10;5.78;;;;;;;9.74;96.42;101171.66;5028917;28;21088;-76
2023/01/11 11:41:03;;;;;;;31.13;4.60;;;;;;;9.74;96.91;101170.78;5019984;28;20109;-77
2023/01/11 11:43:30;;;;;;;28.52;5.00;;;;;;;9.73;97.63;101172.69;5025550;28;20060;-76
2023/01/11 11:46:18;;;;;;;26.30;5.13;;;;;;;9.81;96.24;101185.41;5025762;28;20034;-77
2023/01/11 11:49:04;;;;;;;30.50;5.00;;;;;;;9.81;94.83;101182.69;5024224;28;20504;-76
2023/01/11 11:51:31;;;;;;;31.63;3.77;;;;;;;9.87;95.33;101176.50;5024026;28;20045;-76
2023/01/11 11:53:57;;;;;;;37.90;5.30;;;;;;;9.91;94.17;101183.28;5021392;28;20715;-76
2023/01/11 11:56:40;;;;;;;41.25;4.43;;;;;;;10.19;93.01;101168.00;5020776;28;20048;-76
2023/01/11 11:59:09;;;;;;;30.50;4.13;;;;;;;10.31;92.08;101178.28;5017684;28;20033;-76
2023/01/11 12:01:38;;;;;;;38.97;5.30;;;;;;;10.45;91.40;101173.84;5021190;28;20026;-77
2023/01/11 12:04:13;;;;;;;30.45;4.75;;;;;;;10.37;91.53;101183.03;5024686;28;20025;-77
2023/01/11 12:06:39;;;;;;;32.05;4.07;;;;;;;10.25;90.10;101173.56;5021507;28;20021;-77